Peristerion, Greece

5:04 AM EET on December 09, 2016 (GMT +0200)
Peristeri, center near Town Hall | | Change Station

Elev 168 ft 38.01 °N, 23.70 °E | Updated 4 minutes ago

Clear
Clear
46.8 °F
Feels Like 47 °F
N
0.0
Wind Variable Wind from North

Today
High -- | Low -- °F
--% Chance of Precip.
Yesterday
High -- | Low -- °F
Precip. -- in
Pressure 30.51 in
Visibility 6.2 miles
Clouds Scattered Clouds 4000 ft
Windchill 47 °F
Dew Point 32 °F
Humidity 57%
Rainfall 0.00 in
Snow Depth Not available.
7:29 AM 5:05 PM
Waxing Gibbous, 69% visible
METAR LGTG 090050Z 00000KT 9999 SCT040 01/M01 Q1033 BLU
Pressure 30.51 in
Visibility 6.2 miles
Clouds Scattered Clouds 4000 ft
Windchill 47 °F
Dew Point 32 °F
Humidity 57%
Rainfall 0.00 in
Snow Depth Not available.
7:29 AM 5:05 PM
Waxing Gibbous, 69% visible
METAR LGTG 090050Z 00000KT 9999 SCT040 01/M01 Q1033 BLU

10-Day Weather Forecast

×

Almanac

Astronomy

Dec. 09, 2016 Rise Set
Actual Time
Civil Twilight
Nautical Twilight
Astronomical Twilight
Moon
Length of Visible Light
Length of Day
Tomorrow will be .
, % of the Moon is Illuminated

Today's Extremes

Country Highs Country Lows

Community

WunderPhotos

Upload Photos

1,956,351 photos uploaded!

WunderBlog® & News

Nearby

Air Quality

  Air Quality AQ Index Pollutant
Not available.

Snow Depth

Station Depth Elevation

Earthquake Activity

City Distance Mag. Time & Date
Minimum magnitude displayed is 2.5.

Coastal Water Temperatures

Place Temperature

Stations

Nearby Weather Stations

Station Location Temp. Windchill Dew Point Humidity Wind Precip. Elev Updated Type